createdAt,value
2017-06-02T05:53:57.823Z,17.9
2017-06-02T05:54:07.815Z,17.9
2017-06-02T05:54:17.812Z,18
2017-06-02T05:54:27.807Z,17.9
2017-06-02T05:54:37.803Z,17.9
2017-06-02T05:54:47.799Z,18
2017-06-02T05:54:57.791Z,17.9
2017-06-02T05:55:07.786Z,17.9
2017-06-02T05:55:17.783Z,18
2017-06-02T05:55:27.776Z,17.9
2017-06-02T05:55:37.771Z,18
2017-06-02T05:55:47.764Z,17.9
2017-06-02T05:55:57.761Z,17.9
2017-06-02T05:56:07.755Z,18
2017-06-02T05:56:17.749Z,17.9
2017-06-02T05:56:27.748Z,18
2017-06-02T05:56:37.740Z,17.9
2017-06-02T05:56:47.733Z,17.9
2017-06-02T05:56:57.729Z,18
2017-06-02T05:57:07.724Z,18
2017-06-02T05:57:17.720Z,18
2017-06-02T05:57:27.714Z,18
2017-06-02T05:57:37.709Z,18
2017-06-02T05:57:47.705Z,18
2017-06-02T05:57:57.702Z,18
2017-06-02T05:58:07.697Z,18.1
2017-06-02T05:58:17.692Z,18.1
2017-06-02T05:58:27.683Z,18.1
2017-06-02T05:58:37.681Z,18.1
2017-06-02T05:58:47.673Z,18.1
2017-06-02T05:58:57.921Z,18.1
2017-06-02T05:59:07.662Z,18.1
2017-06-02T05:59:17.661Z,18
2017-06-02T05:59:27.657Z,18
2017-06-02T05:59:37.650Z,18.1
2017-06-02T05:59:47.643Z,18
2017-06-02T05:59:57.641Z,18
2017-06-02T06:00:07.633Z,18
2017-06-02T06:00:17.631Z,18.2
2017-06-02T06:00:27.628Z,18.1
2017-06-02T06:00:37.617Z,18.1
2017-06-02T06:00:47.614Z,18.1
2017-06-02T06:00:57.609Z,18.2
2017-06-02T06:01:07.603Z,18.1
2017-06-02T06:01:17.599Z,18.2
2017-06-02T06:01:27.594Z,18.2
2017-06-02T06:01:37.587Z,18.1
2017-06-02T06:01:47.584Z,18.2
2017-06-02T06:01:57.580Z,18.1
2017-06-02T06:02:07.575Z,18.1
2017-06-02T06:02:17.567Z,18.1
2017-06-02T06:02:27.565Z,18.2
2017-06-02T06:02:37.558Z,18.2
2017-06-02T06:02:47.554Z,18.2
2017-06-02T06:02:57.551Z,18.2
2017-06-02T06:03:07.543Z,18.2
2017-06-02T06:03:17.541Z,18.2
2017-06-02T06:03:27.535Z,18.1
2017-06-02T06:03:37.531Z,18.2
2017-06-02T06:03:47.523Z,18.3
2017-06-02T06:03:57.767Z,18.2
2017-06-02T06:04:07.515Z,18.3
2017-06-02T06:04:17.510Z,18.2
2017-06-02T06:04:27.504Z,18.2
2017-06-02T06:04:37.499Z,18.2
2017-06-02T06:04:47.492Z,18.2
2017-06-02T06:04:57.497Z,18.3
2017-06-02T06:05:07.481Z,18.3
2017-06-02T06:05:17.478Z,18.3
2017-06-02T06:05:27.473Z,18.3
2017-06-02T06:05:37.470Z,18.2
2017-06-02T06:05:47.465Z,18.2
2017-06-02T06:05:57.460Z,18.3
2017-06-02T06:06:07.454Z,18.2
2017-06-02T06:06:17.448Z,18.2
2017-06-02T06:06:27.445Z,18.2
2017-06-02T06:06:37.438Z,18.3
2017-06-02T06:06:47.434Z,18.2
2017-06-02T06:06:57.430Z,18.2
2017-06-02T06:07:07.426Z,18.3
2017-06-02T06:07:17.417Z,18.3
2017-06-02T06:07:27.413Z,18.3
2017-06-02T06:07:37.410Z,18.3
2017-06-02T06:07:47.401Z,18.4
2017-06-02T06:07:57.396Z,18.3
2017-06-02T06:08:07.395Z,18.3
2017-06-02T06:08:17.388Z,18.4
2017-06-02T06:08:27.385Z,18.3
2017-06-02T06:08:37.376Z,18.3
2017-06-02T06:08:47.371Z,18.3
2017-06-02T06:08:57.617Z,18.3
2017-06-02T06:09:07.362Z,18.3
2017-06-02T06:09:17.358Z,18.3
2017-06-02T06:09:27.352Z,18.4
2017-06-02T06:09:37.347Z,18.4
2017-06-02T06:09:47.342Z,18.4
2017-06-02T06:09:57.336Z,18.5
2017-06-02T06:10:07.335Z,18.5
2017-06-02T06:10:17.327Z,18.4
2017-06-02T06:10:27.324Z,18.4
2017-06-02T06:10:37.317Z,18.4
2017-06-02T06:10:47.314Z,18.5
2017-06-02T06:10:57.312Z,18.5
2017-06-02T06:11:07.305Z,18.4
2017-06-02T06:11:17.297Z,18.5
2017-06-02T06:11:27.291Z,18.5
2017-06-02T06:11:37.290Z,18.5
2017-06-02T06:11:47.281Z,18.5
2017-06-02T06:11:57.281Z,18.5
2017-06-02T06:12:07.270Z,18.5
2017-06-02T06:12:17.267Z,18.5
2017-06-02T06:12:27.266Z,18.4
2017-06-02T06:12:37.259Z,18.5
2017-06-02T06:12:47.251Z,18.5
2017-06-02T06:12:57.246Z,18.5
2017-06-02T06:13:07.241Z,18.5
2017-06-02T06:13:17.239Z,18.6
2017-06-02T06:13:27.234Z,18.6
2017-06-02T06:13:37.227Z,18.5
2017-06-02T06:13:47.225Z,18.5
2017-06-02T06:13:57.469Z,18.5
2017-06-02T06:14:07.214Z,18.6
2017-06-02T06:14:17.209Z,18.6
2017-06-02T06:14:27.205Z,18.6
2017-06-02T06:14:37.200Z,18.6
2017-06-02T06:14:47.194Z,18.5
2017-06-02T06:14:57.186Z,18.6
2017-06-02T06:15:07.183Z,18.6
2017-06-02T06:15:17.177Z,18.6
2017-06-02T06:15:27.172Z,18.7
2017-06-02T06:15:37.170Z,18.7
2017-06-02T06:15:47.162Z,18.6
2017-06-02T06:15:57.156Z,18.6
2017-06-02T06:16:07.155Z,18.6
2017-06-02T06:16:17.150Z,18.7
2017-06-02T06:16:27.145Z,18.7
2017-06-02T06:16:37.136Z,18.7
2017-06-02T06:16:47.132Z,18.7
2017-06-02T06:16:57.128Z,18.7
2017-06-02T06:17:07.125Z,18.7
2017-06-02T06:17:17.120Z,18.7
2017-06-02T06:17:27.113Z,18.6
2017-06-02T06:17:37.108Z,18.8
2017-06-02T06:17:47.104Z,18.7
2017-06-02T06:17:57.100Z,18.8
2017-06-02T06:18:07.097Z,18.7
2017-06-02T06:18:17.090Z,18.7
2017-06-02T06:18:27.084Z,18.7
2017-06-02T06:18:37.081Z,18.7
2017-06-02T06:18:47.074Z,18.7
2017-06-02T06:18:57.066Z,18.7
2017-06-02T06:19:07.065Z,18.7
2017-06-02T06:19:17.058Z,18.7
2017-06-02T06:19:27.055Z,18.7
2017-06-02T06:19:37.048Z,18.7
2017-06-02T06:19:47.044Z,18.7
2017-06-02T06:19:57.040Z,18.7
2017-06-02T06:20:07.032Z,18.8
2017-06-02T06:20:17.028Z,18.8
2017-06-02T06:20:27.023Z,18.7
2017-06-02T06:20:37.019Z,18.7
2017-06-02T06:20:47.015Z,18.7
2017-06-02T06:20:57.008Z,18.8
2017-06-02T06:21:07.001Z,18.8
2017-06-02T06:21:17.000Z,18.8
2017-06-02T06:21:26.994Z,18.8
2017-06-02T06:21:36.989Z,18.8
2017-06-02T06:21:46.985Z,18.8
2017-06-02T06:21:56.980Z,18.8
2017-06-02T06:22:06.974Z,18.9
2017-06-02T06:22:16.969Z,18.8
2017-06-02T06:22:26.963Z,18.7
2017-06-02T06:22:36.959Z,18.8
2017-06-02T06:22:46.955Z,18.8
2017-06-02T06:22:56.946Z,18.8
2017-06-02T06:23:06.945Z,18.8
2017-06-02T06:23:16.938Z,18.9
2017-06-02T06:23:26.931Z,18.9
2017-06-02T06:23:36.931Z,18.9
2017-06-02T06:23:46.925Z,18.9
2017-06-02T06:23:56.918Z,18.9
2017-06-02T06:24:06.910Z,18.9
2017-06-02T06:24:16.912Z,18.9
2017-06-02T06:24:26.905Z,18.8
2017-06-02T06:24:36.898Z,18.9
2017-06-02T06:24:46.895Z,18.9
2017-06-02T06:24:56.888Z,19
2017-06-02T06:25:06.882Z,18.9
2017-06-02T06:25:16.878Z,18.9
2017-06-02T06:25:26.872Z,19
2017-06-02T06:25:36.869Z,19
2017-06-02T06:25:46.864Z,19
2017-06-02T06:25:56.860Z,19
2017-06-02T06:26:06.853Z,19.1
2017-06-02T06:26:16.847Z,19
2017-06-02T06:26:26.844Z,19.1
2017-06-02T06:26:36.838Z,19
2017-06-02T06:26:46.832Z,19
2017-06-02T06:26:56.830Z,19.1
2017-06-02T06:27:06.824Z,19
2017-06-02T06:27:16.819Z,19
2017-06-02T06:27:26.815Z,19.1
2017-06-02T06:27:36.810Z,19.1
2017-06-02T06:27:46.806Z,19.1
2017-06-02T06:27:56.801Z,19.1
2017-06-02T06:28:06.796Z,19.1
2017-06-02T06:28:16.791Z,19.2
2017-06-02T06:28:26.784Z,19.2
2017-06-02T06:28:36.781Z,19.2
2017-06-02T06:28:46.772Z,19.2
2017-06-02T06:28:56.771Z,19.2
2017-06-02T06:29:06.763Z,19.1
2017-06-02T06:29:16.760Z,19.2
2017-06-02T06:29:26.755Z,19.1
2017-06-02T06:29:36.749Z,19.2
2017-06-02T06:29:46.746Z,19.2
2017-06-02T06:29:56.741Z,19.2
2017-06-02T06:30:06.733Z,19.2
2017-06-02T06:30:16.730Z,19.2
2017-06-02T06:30:26.726Z,19.2
2017-06-02T06:30:36.720Z,19.2
2017-06-02T06:30:46.715Z,19.2
2017-06-02T06:30:56.709Z,19.2
2017-06-02T06:31:06.707Z,19.3
2017-06-02T06:31:16.700Z,19.2
2017-06-02T06:31:26.698Z,19.2
2017-06-02T06:31:36.690Z,19.3
2017-06-02T06:31:46.684Z,19.2
2017-06-02T06:31:56.680Z,19.3
2017-06-02T06:32:06.674Z,19.3
2017-06-02T06:32:16.671Z,19.4
2017-06-02T06:32:26.666Z,19.3
2017-06-02T06:32:36.662Z,19.3
2017-06-02T06:32:46.657Z,19.4
2017-06-02T06:32:56.652Z,19.3
2017-06-02T06:33:06.644Z,19.3
2017-06-02T06:33:16.642Z,19.4
2017-06-02T06:33:26.634Z,19.4
2017-06-02T06:33:36.632Z,19.4
2017-06-02T06:33:46.628Z,19.3
2017-06-02T06:33:56.871Z,19.4
2017-06-02T06:34:06.616Z,19.4
2017-06-02T06:34:16.611Z,19.3
2017-06-02T06:34:26.607Z,19.3
2017-06-02T06:34:36.603Z,19.4
2017-06-02T06:34:46.597Z,19.4
2017-06-02T06:34:56.590Z,19.4
2017-06-02T06:35:06.585Z,19.5
2017-06-02T06:35:16.580Z,19.5
2017-06-02T06:35:26.574Z,19.4
2017-06-02T06:35:36.569Z,19.4
2017-06-02T06:35:46.565Z,19.4
2017-06-02T06:35:56.562Z,19.4
2017-06-02T06:36:06.554Z,19.4
2017-06-02T06:36:16.552Z,19.5
2017-06-02T06:36:26.546Z,19.5
2017-06-02T06:36:36.541Z,19.4
2017-06-02T06:36:46.535Z,19.5
2017-06-02T06:36:56.537Z,19.5
2017-06-02T06:37:06.528Z,19.5
2017-06-02T06:37:16.523Z,19.5
2017-06-02T06:37:26.515Z,19.6
2017-06-02T06:37:36.513Z,19.5
2017-06-02T06:37:46.507Z,19.6
2017-06-02T06:37:56.502Z,19.5
2017-06-02T06:38:06.498Z,19.6
2017-06-02T06:38:16.511Z,19.6
2017-06-02T06:38:26.486Z,19.6
2017-06-02T06:38:36.481Z,19.6
2017-06-02T06:38:46.478Z,19.6
2017-06-02T06:38:56.724Z,19.6
2017-06-02T06:39:06.469Z,19.6
2017-06-02T06:39:16.463Z,19.6
2017-06-02T06:39:26.456Z,19.6
2017-06-02T06:39:36.451Z,19.6
2017-06-02T06:39:46.447Z,19.7
2017-06-02T06:39:56.443Z,19.6
2017-06-02T06:40:06.439Z,19.7
2017-06-02T06:40:16.431Z,19.7
2017-06-02T06:40:26.427Z,19.6
2017-06-02T06:40:36.423Z,19.8
2017-06-02T06:40:46.425Z,19.7
2017-06-02T06:40:56.412Z,19.7
2017-06-02T06:41:06.407Z,19.6
2017-06-02T06:41:16.405Z,19.7
2017-06-02T06:41:26.399Z,19.7
2017-06-02T06:41:36.395Z,19.8
2017-06-02T06:41:46.389Z,19.7
2017-06-02T06:41:56.382Z,19.7
2017-06-02T06:42:06.381Z,19.6
2017-06-02T06:42:16.376Z,19.8
2017-06-02T06:42:26.369Z,19.7
2017-06-02T06:42:36.365Z,19.7
2017-06-02T06:42:46.424Z,19.7
2017-06-02T06:42:56.353Z,19.8
2017-06-02T06:43:06.348Z,19.7
2017-06-02T06:43:16.346Z,19.8
2017-06-02T06:43:26.339Z,19.8
2017-06-02T06:43:36.333Z,19.8
2017-06-02T06:43:46.328Z,19.8
2017-06-02T06:43:56.574Z,19.8
2017-06-02T06:44:06.318Z,19.8
2017-06-02T06:44:16.316Z,19.8
2017-06-02T06:44:26.312Z,19.8
2017-06-02T06:44:36.306Z,19.7
2017-06-02T06:44:46.299Z,19.8
2017-06-02T06:44:56.298Z,19.8
2017-06-02T06:45:06.288Z,19.7
2017-06-02T06:45:16.285Z,19.8
2017-06-02T06:45:26.282Z,19.8
2017-06-02T06:45:36.276Z,19.8
2017-06-02T06:45:46.271Z,19.9
2017-06-02T06:45:56.267Z,19.9
2017-06-02T06:46:06.262Z,19.8
2017-06-02T06:46:16.258Z,19.8
2017-06-02T06:46:26.256Z,19.9
2017-06-02T06:46:36.245Z,19.9
2017-06-02T06:46:46.243Z,19.9
2017-06-02T06:46:56.234Z,19.9
2017-06-02T06:47:06.233Z,19.9
2017-06-02T06:47:16.226Z,19.9
2017-06-02T06:47:26.222Z,19.9
2017-06-02T06:47:36.215Z,19.9
2017-06-02T06:47:46.213Z,19.9
2017-06-02T06:47:56.208Z,20
2017-06-02T06:48:06.203Z,20
2017-06-02T06:48:16.195Z,19.9
2017-06-02T06:48:26.194Z,20
2017-06-02T06:48:36.189Z,19.9
2017-06-02T06:48:46.183Z,20
2017-06-02T06:48:56.428Z,19.9
2017-06-02T06:49:06.172Z,20
2017-06-02T06:49:16.170Z,19.9
2017-06-02T06:49:26.160Z,20
2017-06-02T06:49:36.156Z,20.1
2017-06-02T06:49:46.154Z,19.9
2017-06-02T06:49:56.149Z,20.1
2017-06-02T06:50:06.141Z,19.9
2017-06-02T06:50:16.140Z,19.9
2017-06-02T06:50:26.131Z,20
2017-06-02T06:50:36.129Z,20.1
2017-06-02T06:50:46.124Z,20.1
2017-06-02T06:50:56.120Z,20.1
2017-06-02T06:51:06.112Z,20
2017-06-02T06:51:16.110Z,20.1
2017-06-02T06:51:26.106Z,20.1
2017-06-02T06:51:36.099Z,20.1
2017-06-02T06:51:46.093Z,20.1
2017-06-02T06:51:56.090Z,20.1
2017-06-02T06:52:06.085Z,20.1
2017-06-02T06:52:16.079Z,20.2
2017-06-02T06:52:26.075Z,20.1
2017-06-02T06:52:36.071Z,20.2
2017-06-02T06:52:46.063Z,20.2
2017-06-02T06:52:56.059Z,20.2
2017-06-02T06:53:06.056Z,20.2
2017-06-02T06:53:16.048Z,20.2
2017-06-02T06:53:26.044Z,20.2
2017-06-02T06:53:36.039Z,20.3
2017-06-02T06:53:46.037Z,20.2
2017-06-02T06:53:56.029Z,20.2
2017-06-02T06:54:06.026Z,20.3
2017-06-02T06:54:16.019Z,20.3
2017-06-02T06:54:26.014Z,20.2
2017-06-02T06:54:36.011Z,20.2
2017-06-02T06:54:46.006Z,20.3
2017-06-02T06:54:55.999Z,20.3
2017-06-02T06:55:05.995Z,20.2
2017-06-02T06:55:15.993Z,20.2
2017-06-02T06:55:25.985Z,20.3
2017-06-02T06:55:35.981Z,20.3
2017-06-02T06:55:45.975Z,20.3
2017-06-02T06:55:55.970Z,20.4
2017-06-02T06:56:05.967Z,20.4
2017-06-02T06:56:15.961Z,20.3
2017-06-02T06:56:25.958Z,20.3
2017-06-02T06:56:35.950Z,20.4
2017-06-02T06:56:45.948Z,20.4
2017-06-02T06:56:55.944Z,20.4
2017-06-02T06:57:05.936Z,20.4
2017-06-02T06:57:15.934Z,20.4
2017-06-02T06:57:25.926Z,20.4
2017-06-02T06:57:35.924Z,20.3
2017-06-02T06:57:45.917Z,20.4
2017-06-02T06:57:55.913Z,20.4
2017-06-02T06:58:05.909Z,20.3
2017-06-02T06:58:15.905Z,20.4
2017-06-02T06:58:25.901Z,20.4
2017-06-02T06:58:35.895Z,20.5
2017-06-02T06:58:45.890Z,20.5
2017-06-02T06:58:55.882Z,20.4
2017-06-02T06:59:05.877Z,20.5
2017-06-02T06:59:15.874Z,20.5
2017-06-02T06:59:25.867Z,20.5
2017-06-02T06:59:35.872Z,20.5
2017-06-02T06:59:45.860Z,20.6
2017-06-02T06:59:55.853Z,20.5
2017-06-02T07:00:05.847Z,20.6
2017-06-02T07:00:15.845Z,20.6
2017-06-02T07:00:25.838Z,20.6
2017-06-02T07:00:35.835Z,20.6
2017-06-02T07:00:45.829Z,20.6
2017-06-02T07:00:55.826Z,20.6
2017-06-02T07:01:05.820Z,20.6
2017-06-02T07:01:15.813Z,20.6
2017-06-02T07:01:25.810Z,20.7
2017-06-02T07:01:35.807Z,20.6
2017-06-02T07:01:45.802Z,20.7
2017-06-02T07:01:55.796Z,20.7
2017-06-02T07:02:05.791Z,20.6
2017-06-02T07:02:15.784Z,20.7
2017-06-02T07:02:25.781Z,20.7
2017-06-02T07:02:35.777Z,20.7
2017-06-02T07:02:45.771Z,20.8
2017-06-02T07:02:55.764Z,20.8
2017-06-02T07:03:05.769Z,20.8
2017-06-02T07:03:15.758Z,20.8
2017-06-02T07:03:25.751Z,20.8
2017-06-02T07:03:35.747Z,20.8
2017-06-02T07:03:45.739Z,20.8
2017-06-02T07:03:55.734Z,20.9
2017-06-02T07:04:05.729Z,20.9
2017-06-02T07:04:15.725Z,20.9
2017-06-02T07:04:25.719Z,21
2017-06-02T07:04:35.717Z,20.9
2017-06-02T07:04:45.709Z,21
2017-06-02T07:04:55.705Z,21
2017-06-02T07:05:05.700Z,21.1
2017-06-02T07:05:15.696Z,21.1
2017-06-02T07:05:25.693Z,21.2
2017-06-02T07:05:35.686Z,21.1
2017-06-02T07:05:45.683Z,21.1
2017-06-02T07:05:55.676Z,21.2
2017-06-02T07:06:05.699Z,21.2
2017-06-02T07:06:15.667Z,21.3
2017-06-02T07:06:25.661Z,21.4
2017-06-02T07:06:35.659Z,21.4
2017-06-02T07:06:45.653Z,21.4
2017-06-02T07:06:55.646Z,21.4
2017-06-02T07:07:05.643Z,21.4
2017-06-02T07:07:15.638Z,21.4
2017-06-02T07:07:25.635Z,21.4
2017-06-02T07:07:35.629Z,21.4
2017-06-02T07:07:45.622Z,21.5
2017-06-02T07:07:55.618Z,21.4
2017-06-02T07:08:05.611Z,21.5
2017-06-02T07:08:15.606Z,21.4
2017-06-02T07:08:25.602Z,21.5
2017-06-02T07:08:35.598Z,21.5
2017-06-02T07:08:45.596Z,21.5
2017-06-02T07:08:55.842Z,21.4
2017-06-02T07:09:05.581Z,21.5
2017-06-02T07:09:15.581Z,21.6
2017-06-02T07:09:25.576Z,21.5
2017-06-02T07:09:35.573Z,21.5
2017-06-02T07:09:45.565Z,21.5
2017-06-02T07:09:55.562Z,21.6
2017-06-02T07:10:05.555Z,21.6
2017-06-02T07:10:15.552Z,21.6
2017-06-02T07:10:25.547Z,21.6
2017-06-02T07:10:35.539Z,21.6
2017-06-02T07:10:45.537Z,21.6
2017-06-02T07:10:55.533Z,21.5
2017-06-02T07:11:05.528Z,21.6
2017-06-02T07:11:15.519Z,21.6
2017-06-02T07:11:25.519Z,21.6
2017-06-02T07:11:35.514Z,21.6
2017-06-02T07:11:45.508Z,21.6
2017-06-02T07:11:55.505Z,21.6
2017-06-02T07:12:05.502Z,21.7
2017-06-02T07:12:15.494Z,21.7
2017-06-02T07:12:25.489Z,21.7
2017-06-02T07:12:35.485Z,21.6
2017-06-02T07:12:45.480Z,21.8
2017-06-02T07:12:55.472Z,21.7
2017-06-02T07:13:05.467Z,21.7
2017-06-02T07:13:15.462Z,21.7
2017-06-02T07:13:25.460Z,21.7
2017-06-02T07:13:35.455Z,21.7
2017-06-02T07:13:45.451Z,21.7
2017-06-02T07:13:55.694Z,21.6
2017-06-02T07:14:05.441Z,21.7
2017-06-02T07:14:15.436Z,21.6
2017-06-02T07:14:25.430Z,21.7
2017-06-02T07:14:35.425Z,21.6
2017-06-02T07:14:45.421Z,21.7
2017-06-02T07:14:55.416Z,21.7
2017-06-02T07:15:05.409Z,21.8
2017-06-02T07:15:15.407Z,21.8
2017-06-02T07:15:25.400Z,21.8
2017-06-02T07:15:35.398Z,21.8
2017-06-02T07:15:45.393Z,21.8
2017-06-02T07:15:55.386Z,21.8
2017-06-02T07:16:05.380Z,21.8
2017-06-02T07:16:15.444Z,21.8
2017-06-02T07:16:25.374Z,21.9
2017-06-02T07:16:35.365Z,21.9
2017-06-02T07:16:45.371Z,21.8
2017-06-02T07:16:55.360Z,21.9
2017-06-02T07:17:05.352Z,22
2017-06-02T07:17:15.350Z,22
2017-06-02T07:17:25.341Z,21.9
2017-06-02T07:17:35.340Z,22
2017-06-02T07:17:45.336Z,21.9
2017-06-02T07:17:55.328Z,22
2017-06-02T07:18:05.323Z,22
2017-06-02T07:18:15.320Z,22
2017-06-02T07:18:25.314Z,22
2017-06-02T07:18:35.311Z,22
2017-06-02T07:18:45.306Z,22
2017-06-02T07:18:55.552Z,22
2017-06-02T07:19:05.294Z,22
2017-06-02T07:19:15.288Z,22
2017-06-02T07:19:25.284Z,22
2017-06-02T07:19:35.280Z,22
2017-06-02T07:19:45.278Z,22
2017-06-02T07:19:55.272Z,22
2017-06-02T07:20:05.267Z,22.1
2017-06-02T07:20:15.260Z,22
2017-06-02T07:20:25.258Z,22
2017-06-02T07:20:35.251Z,22
2017-06-02T07:20:45.246Z,22
2017-06-02T07:20:55.241Z,22
2017-06-02T07:21:05.238Z,22
2017-06-02T07:21:15.231Z,22
2017-06-02T07:21:25.226Z,22
2017-06-02T07:21:35.221Z,22
2017-06-02T07:21:45.220Z,22.1
2017-06-02T07:21:55.215Z,22
2017-06-02T07:22:05.208Z,22.1
2017-06-02T07:22:15.203Z,22.1
2017-06-02T07:22:25.198Z,22.1
2017-06-02T07:22:35.194Z,22.1
2017-06-02T07:22:45.190Z,22.1
2017-06-02T07:22:55.186Z,22.2
2017-06-02T07:23:05.180Z,22.1
2017-06-02T07:23:15.173Z,22.2
2017-06-02T07:23:25.170Z,22.2
2017-06-02T07:23:35.165Z,22.2
2017-06-02T07:23:45.162Z,22.2
2017-06-02T07:23:55.406Z,22.3
2017-06-02T07:24:05.152Z,22.2
2017-06-02T07:24:15.147Z,22.3
2017-06-02T07:24:25.143Z,22.2
2017-06-02T07:24:35.138Z,22.3
2017-06-02T07:24:45.133Z,22.4
2017-06-02T07:24:55.127Z,22.3
2017-06-02T07:25:05.122Z,22.4
2017-06-02T07:25:15.117Z,22.4
2017-06-02T07:25:25.114Z,22.4
2017-06-02T07:25:35.108Z,22.5
2017-06-02T07:25:45.103Z,22.6
2017-06-02T07:25:55.099Z,22.5
2017-06-02T07:26:05.093Z,22.5
2017-06-02T07:26:15.089Z,22.5
2017-06-02T07:26:25.083Z,22.6
2017-06-02T07:26:35.079Z,22.6
2017-06-02T07:26:45.074Z,22.6
2017-06-02T07:26:55.069Z,22.6
2017-06-02T07:27:05.066Z,22.7
2017-06-02T07:27:15.060Z,22.6
2017-06-02T07:27:25.056Z,22.6
2017-06-02T07:27:35.050Z,22.7
2017-06-02T07:27:45.044Z,22.7
2017-06-02T07:27:55.041Z,22.7
2017-06-02T07:28:05.038Z,22.7
2017-06-02T07:28:15.036Z,22.7
2017-06-02T07:28:25.028Z,22.7
2017-06-02T07:28:35.022Z,22.7
2017-06-02T07:28:45.016Z,22.7
2017-06-02T07:28:55.013Z,22.6
2017-06-02T07:29:05.009Z,22.6
2017-06-02T07:29:15.005Z,22.7
2017-06-02T07:29:25.000Z,22.6
2017-06-02T07:29:34.996Z,22.7
2017-06-02T07:29:44.989Z,22.7
2017-06-02T07:29:54.984Z,22.7
2017-06-02T07:30:04.981Z,22.7
2017-06-02T07:30:14.974Z,22.7
2017-06-02T07:30:24.969Z,22.7
2017-06-02T07:30:34.967Z,22.7
2017-06-02T07:30:44.962Z,22.7
2017-06-02T07:30:54.955Z,22.6
2017-06-02T07:31:04.952Z,22.7
2017-06-02T07:31:14.948Z,22.6
2017-06-02T07:31:24.942Z,22.7
2017-06-02T07:31:34.935Z,22.7
2017-06-02T07:31:44.930Z,22.6
2017-06-02T07:31:54.927Z,22.7
2017-06-02T07:32:04.920Z,22.7
2017-06-02T07:32:14.919Z,22.7
2017-06-02T07:32:24.915Z,22.7
2017-06-02T07:32:34.906Z,22.7
2017-06-02T07:32:44.905Z,22.8
2017-06-02T07:32:54.898Z,22.8
2017-06-02T07:33:04.896Z,22.8
2017-06-02T07:33:14.889Z,22.8
2017-06-02T07:33:24.883Z,22.9
2017-06-02T07:33:34.879Z,22.8
2017-06-02T07:33:44.874Z,22.8
2017-06-02T07:33:54.869Z,22.8
2017-06-02T07:34:04.866Z,22.8
2017-06-02T07:34:14.863Z,22.9
2017-06-02T07:34:24.854Z,22.9
2017-06-02T07:34:34.851Z,22.9
2017-06-02T07:34:44.848Z,22.9
2017-06-02T07:34:54.844Z,23
2017-06-02T07:35:04.838Z,23
2017-06-02T07:35:14.833Z,23
2017-06-02T07:35:24.830Z,23.1
2017-06-02T07:35:34.824Z,23.1
2017-06-02T07:35:44.816Z,23.1
2017-06-02T07:35:54.814Z,23
2017-06-02T07:36:04.807Z,23
2017-06-02T07:36:14.804Z,23.1
2017-06-02T07:36:24.801Z,23.2
2017-06-02T07:36:34.794Z,23.2
2017-06-02T07:36:44.790Z,23.2
2017-06-02T07:36:54.789Z,23.1
2017-06-02T07:37:04.782Z,23.2
2017-06-02T07:37:14.778Z,23.2
2017-06-02T07:37:24.772Z,23.2
2017-06-02T07:37:34.766Z,23.3
2017-06-02T07:37:44.763Z,23.3
2017-06-02T07:37:54.758Z,23.3
2017-06-02T07:38:04.755Z,23.4
2017-06-02T07:38:14.749Z,23.5
2017-06-02T07:38:24.745Z,23.4
2017-06-02T07:38:34.743Z,23.5
2017-06-02T07:38:44.733Z,23.5
2017-06-02T07:38:54.727Z,23.5
2017-06-02T07:39:04.726Z,23.5
2017-06-02T07:39:14.718Z,23.5
2017-06-02T07:39:24.714Z,23.5
2017-06-02T07:39:34.709Z,23.5
2017-06-02T07:39:44.705Z,23.5
2017-06-02T07:39:54.700Z,23.6
2017-06-02T07:40:04.696Z,23.5
2017-06-02T07:40:14.690Z,23.5
2017-06-02T07:40:24.685Z,23.5
2017-06-02T07:40:34.679Z,23.5
2017-06-02T07:40:44.678Z,23.5
2017-06-02T07:40:54.672Z,23.5
2017-06-02T07:41:04.667Z,23.6
2017-06-02T07:41:14.664Z,23.5
2017-06-02T07:41:24.656Z,23.7
2017-06-02T07:41:34.653Z,23.7
2017-06-02T07:41:44.650Z,23.6
2017-06-02T07:41:54.645Z,23.6
2017-06-02T07:42:04.639Z,23.5
2017-06-02T07:42:14.634Z,23.7
2017-06-02T07:42:24.631Z,23.5
2017-06-02T07:42:34.625Z,23.5
2017-06-02T07:42:44.619Z,23.6
2017-06-02T07:42:54.615Z,23.5
2017-06-02T07:43:04.609Z,23.4
2017-06-02T07:43:14.608Z,23.3
2017-06-02T07:43:24.604Z,23.3
2017-06-02T07:43:34.599Z,23.3
2017-06-02T07:43:44.593Z,23.3
2017-06-02T07:43:54.839Z,23.2
2017-06-02T07:44:04.581Z,23.3
2017-06-02T07:44:14.580Z,23.3
2017-06-02T07:44:24.577Z,23.4
2017-06-02T07:44:34.568Z,23.4
2017-06-02T07:44:44.565Z,23.4
2017-06-02T07:44:54.562Z,23.4
2017-06-02T07:45:04.554Z,23.5
2017-06-02T07:45:14.550Z,23.5
2017-06-02T07:45:24.545Z,23.5
2017-06-02T07:45:34.542Z,23.5
2017-06-02T07:45:44.538Z,23.5
2017-06-02T07:45:54.530Z,23.6
2017-06-02T07:46:04.529Z,23.7
2017-06-02T07:46:14.521Z,23.6
2017-06-02T07:46:24.518Z,23.7
2017-06-02T07:46:34.515Z,23.6
2017-06-02T07:46:44.506Z,23.7
2017-06-02T07:46:54.505Z,23.7
2017-06-02T07:47:04.499Z,23.6
2017-06-02T07:47:14.493Z,23.8
2017-06-02T07:47:24.491Z,23.7
2017-06-02T07:47:34.486Z,23.7
2017-06-02T07:47:44.481Z,23.8
2017-06-02T07:47:54.475Z,23.7
2017-06-02T07:48:04.474Z,23.8
2017-06-02T07:48:14.465Z,23.7
2017-06-02T07:48:24.459Z,23.6
2017-06-02T07:48:34.457Z,23.7
2017-06-02T07:48:44.453Z,23.6
2017-06-02T07:48:54.700Z,23.8
2017-06-02T07:49:04.444Z,23.8
2017-06-02T07:49:14.439Z,23.7
2017-06-02T07:49:24.432Z,23.7
2017-06-02T07:49:34.427Z,23.7
2017-06-02T07:49:44.426Z,23.8
2017-06-02T07:49:54.421Z,23.8
2017-06-02T07:50:04.416Z,23.7
2017-06-02T07:50:14.410Z,23.7
2017-06-02T07:50:24.405Z,23.7
2017-06-02T07:50:34.400Z,23.8
2017-06-02T07:50:44.397Z,23.8
2017-06-02T07:50:54.391Z,23.7
2017-06-02T07:51:04.385Z,23.8
2017-06-02T07:51:14.379Z,23.7
2017-06-02T07:51:24.379Z,23.6
2017-06-02T07:51:34.371Z,23.6
2017-06-02T07:51:44.369Z,23.8
2017-06-02T07:51:54.365Z,23.7
2017-06-02T07:52:04.357Z,23.7
2017-06-02T07:52:14.352Z,23.6
2017-06-02T07:52:24.348Z,23.5
2017-06-02T07:52:34.344Z,23.6
2017-06-02T07:52:44.339Z,23.6
2017-06-02T07:52:54.334Z,23.6
2017-06-02T07:53:04.330Z,23.7
2017-06-02T07:53:14.325Z,23.7
2017-06-02T07:53:24.323Z,23.8
2017-06-02T07:53:34.318Z,23.8
2017-06-02T07:53:44.310Z,23.8
2017-06-02T07:53:54.557Z,23.8
2017-06-02T07:54:04.303Z,23.8
2017-06-02T07:54:14.300Z,23.8
2017-06-02T07:54:24.294Z,23.9
2017-06-02T07:54:34.290Z,24
2017-06-02T07:54:44.286Z,24
2017-06-02T07:54:54.281Z,24
2017-06-02T07:55:04.274Z,24.1
2017-06-02T07:55:14.270Z,24.1
2017-06-02T07:55:24.264Z,24.2
2017-06-02T07:55:34.265Z,24.2
2017-06-02T07:55:44.255Z,24.3
2017-06-02T07:55:54.251Z,24.2
2017-06-02T07:56:04.246Z,24.2
2017-06-02T07:56:14.242Z,24.3
2017-06-02T07:56:24.236Z,24.3
2017-06-02T07:56:34.234Z,24.3
2017-06-02T07:56:44.226Z,24.4
2017-06-02T07:56:54.226Z,24.3
2017-06-02T07:57:04.218Z,24.5
2017-06-02T07:57:14.216Z,24.5
2017-06-02T07:57:24.208Z,24.5
2017-06-02T07:57:34.204Z,24.5
2017-06-02T07:57:44.200Z,24.5
2017-06-02T07:57:54.197Z,24.5
2017-06-02T07:58:04.193Z,24.5
2017-06-02T07:58:14.190Z,24.6
2017-06-02T07:58:24.181Z,24.6
2017-06-02T07:58:34.179Z,24.6
2017-06-02T07:58:44.174Z,24.7
2017-06-02T07:58:54.417Z,24.7
2017-06-02T07:59:04.164Z,24.7
2017-06-02T07:59:14.156Z,24.7
2017-06-02T07:59:24.153Z,24.7
2017-06-02T07:59:34.149Z,24.7
2017-06-02T07:59:44.146Z,24.7
2017-06-02T07:59:54.142Z,24.8
2017-06-02T08:00:04.134Z,24.8
2017-06-02T08:00:14.133Z,24.7
2017-06-02T08:00:24.124Z,24.8
2017-06-02T08:00:34.123Z,24.8
2017-06-02T08:00:44.118Z,24.8
2017-06-02T08:00:54.113Z,24.7
2017-06-02T08:01:04.108Z,24.8
2017-06-02T08:01:14.103Z,24.8
2017-06-02T08:01:24.099Z,24.8
2017-06-02T08:01:34.093Z,24.9
2017-06-02T08:01:44.088Z,24.7
2017-06-02T08:01:54.086Z,24.9
2017-06-02T08:02:04.080Z,24.8
2017-06-02T08:02:14.076Z,24.9
2017-06-02T08:02:24.072Z,25
2017-06-02T08:02:34.067Z,24.9
2017-06-02T08:02:44.063Z,25
2017-06-02T08:02:54.056Z,25
2017-06-02T08:03:04.054Z,25
2017-06-02T08:03:14.047Z,25
2017-06-02T08:03:24.043Z,25
2017-06-02T08:03:34.038Z,25
2017-06-02T08:03:44.032Z,25.1
2017-06-02T08:03:54.028Z,25.1
2017-06-02T08:04:04.026Z,25
2017-06-02T08:04:14.022Z,25
2017-06-02T08:04:24.016Z,25.1
2017-06-02T08:04:34.011Z,25
2017-06-02T08:04:44.008Z,25
2017-06-02T08:04:53.999Z,25
2017-06-02T08:05:03.999Z,25.1
2017-06-02T08:05:13.994Z,25
2017-06-02T08:05:23.986Z,25.1
2017-06-02T08:05:33.984Z,25.2
2017-06-02T08:05:43.979Z,25.1
2017-06-02T08:05:53.975Z,25.1
2017-06-02T08:06:03.969Z,25.1
2017-06-02T08:06:13.967Z,25.1
2017-06-02T08:06:23.962Z,25.1
2017-06-02T08:06:33.957Z,25.1
2017-06-02T08:06:43.953Z,25.1
2017-06-02T08:06:53.946Z,25.1
2017-06-02T08:07:03.942Z,25.2
2017-06-02T08:07:13.939Z,25.2
2017-06-02T08:07:23.932Z,25.2
2017-06-02T08:07:33.930Z,25.2
2017-06-02T08:07:43.924Z,25.2
2017-06-02T08:07:53.920Z,25.2